Amderma, Russia
Current Conditions -  °F | °C
As of 12:30 AM on Tuesday 21 Oct 2014 (Local Time) from UUYY Reporting Station
Clear Clear  
Wind Chill: 10°   Ceiling: Unl
Heat Index: 10°   Visibility: 6mi
Dew Point:   Wind: 2mph
Humidity: 79%   Direction: NA
Pressure: 29.8"   Gusts: NA
Location:  69.76°N, 61.67°E
Report Text: UUYY 202130Z VRB01MPS CAVOK M12/M15 Q1009 NOSIG 01CLRD61 RMKQFE748/0997
Loading
Personal Weather Stations






























Interactive Weather Map
Tropical Storm Tracking
New forecast layout! Learn more

10-Day Weather Forecast

Advertisements
Track Severe Weather on mobile